Time;durP1;ratioP1;P1;durP2;ratioP2;P2;SDS_P1;SDS_P2;PMS_P1;PMS_P2;Temp;Humidity;BMP_temperature;BMP_pressure;BME280_temperature;BME280_humidity;BME280_pressure;Samples;Min_cycle;Max_cycle;Signal;HPM_P1;HPM_P2
2021/11/01 00:01:39;;;;;;;37.10;22.77;;;;;;;7.00;85.26;100392.44;5020309;28;20045;-67
2021/11/01 00:04:05;;;;;;;33.72;21.50;;;;;;;6.97;85.91;100385.47;5025994;28;20087;-67
2021/11/01 00:06:31;;;;;;;35.67;22.55;;;;;;;6.99;85.94;100380.03;5022557;28;20037;-67
2021/11/01 00:08:57;;;;;;;36.65;21.30;;;;;;;7.00;86.54;100381.75;5017679;28;20567;-67
2021/11/01 00:11:23;;;;;;;37.95;20.88;;;;;;;7.02;86.75;100373.66;5017842;28;20033;-67
2021/11/01 00:13:49;;;;;;;33.30;21.67;;;;;;;7.00;86.22;100371.09;5022300;28;20065;-67
2021/11/01 00:16:15;;;;;;;33.70;21.20;;;;;;;7.02;86.34;100369.16;5015188;28;20112;-66
2021/11/01 00:18:41;;;;;;;39.58;22.50;;;;;;;7.03;86.85;100370.00;5017077;28;20113;-67
2021/11/01 00:21:07;;;;;;;35.50;21.02;;;;;;;7.02;86.44;100363.00;5018844;28;20041;-67
2021/11/01 00:23:33;;;;;;;36.60;21.75;;;;;;;7.01;86.88;100359.47;5010716;28;20033;-67
2021/11/01 00:25:58;;;;;;;32.70;21.25;;;;;;;7.00;86.17;100355.94;5014101;28;20033;-67
2021/11/01 00:28:24;;;;;;;34.08;21.70;;;;;;;7.02;86.99;100361.16;5014745;28;20033;-67
2021/11/01 00:30:50;;;;;;;35.53;22.45;;;;;;;7.02;87.06;100355.00;5018609;28;20037;-67
2021/11/01 00:33:16;;;;;;;40.60;22.48;;;;;;;7.02;87.11;100344.31;5015573;28;20038;-67
2021/11/01 00:35:41;;;;;;;38.35;22.75;;;;;;;7.06;86.77;100356.47;5021673;28;20018;-67
2021/11/01 00:38:07;;;;;;;35.10;21.27;;;;;;;7.04;87.01;100344.06;5017056;28;20517;-68
2021/11/01 00:40:33;;;;;;;33.85;21.33;;;;;;;7.05;86.91;100347.59;5013125;28;20017;-67
2021/11/01 00:43:03;;;;;;;32.28;21.80;;;;;;;6.97;87.08;100324.16;5021119;28;20116;-67
2021/11/01 00:45:28;;;;;;;36.75;22.13;;;;;;;7.04;87.27;100329.91;5016378;28;20510;-67
2021/11/01 00:47:54;;;;;;;34.60;23.05;;;;;;;7.04;87.34;100328.06;5019755;28;20029;-67
2021/11/01 00:50:20;;;;;;;41.38;24.00;;;;;;;7.09;87.01;100326.91;5020076;28;20506;-67
2021/11/01 00:52:45;;;;;;;39.25;24.77;;;;;;;7.09;86.79;100330.41;5024420;28;20037;-67
2021/11/01 00:55:20;;;;;;;38.88;24.17;;;;;;;7.10;87.25;100331.25;5017561;28;20030;-67
2021/11/01 00:57:46;;;;;;;36.75;23.75;;;;;;;7.13;86.74;100325.72;5023281;28;20108;-67
2021/11/01 01:00:12;;;;;;;37.35;24.45;;;;;;;7.07;86.97;100325.19;5010966;28;20440;-67
2021/11/01 01:02:37;;;;;;;36.70;23.80;;;;;;;7.01;86.99;100306.13;5023838;28;20033;-67
2021/11/01 01:05:05;;;;;;;36.22;22.73;;;;;;;7.11;87.08;100322.28;5015737;28;20036;-67
2021/11/01 01:07:30;;;;;;;38.00;22.60;;;;;;;7.07;86.84;100315.50;5014981;28;20036;-67
2021/11/01 01:09:56;;;;;;;35.97;22.50;;;;;;;7.06;86.93;100314.63;5019993;28;20033;-67
2021/11/01 01:12:23;;;;;;;38.45;23.30;;;;;;;7.07;87.23;100312.81;5011451;28;20022;-67
2021/11/01 01:14:59;;;;;;;39.22;23.27;;;;;;;7.01;87.18;100298.13;5019119;28;20025;-67
2021/11/01 01:17:26;;;;;;;41.63;23.27;;;;;;;7.03;86.69;100291.72;5013196;28;20033;-69
2021/11/01 01:20:04;;;;;;;37.58;22.88;;;;;;;7.04;87.11;100296.06;5016329;28;20129;-68
2021/11/01 01:22:30;;;;;;;34.30;22.67;;;;;;;7.06;87.60;100303.97;5022439;28;20436;-68
2021/11/01 01:27:51;;;;;;;38.42;23.08;;;;;;;7.13;87.08;100299.03;5013535;28;20046;-68
2021/11/01 01:30:16;;;;;;;37.00;22.40;;;;;;;7.02;87.39;100267.00;5015448;28;20452;-68
2021/11/01 01:32:43;;;;;;;35.70;21.63;;;;;;;7.12;87.22;100286.69;5020620;28;20091;-68
2021/11/01 01:35:10;;;;;;;36.03;22.65;;;;;;;7.15;86.99;100289.97;5022901;28;20037;-69
2021/11/01 01:37:36;;;;;;;38.05;23.52;;;;;;;7.15;87.09;100286.47;5021494;28;20044;-69
2021/11/01 01:40:06;;;;;;;36.67;23.73;;;;;;;7.16;86.77;100280.16;5022707;28;20025;-69
2021/11/01 01:42:32;;;;;;;38.20;23.33;;;;;;;7.17;87.03;100271.16;5017637;28;20098;-69
2021/11/01 01:44:58;;;;;;;38.47;24.30;;;;;;;7.19;86.75;100272.75;5016176;28;20108;-69
2021/11/01 01:47:24;;;;;;;38.60;24.25;;;;;;;7.21;86.59;100270.84;5007979;28;20121;-69
2021/11/01 01:49:49;;;;;;;35.67;22.80;;;;;;;7.21;86.45;100269.97;5014587;28;20079;-67
2021/11/01 01:52:15;;;;;;;39.25;23.38;;;;;;;7.21;87.06;100264.63;5015689;28;20033;-68
2021/11/01 01:54:40;;;;;;;39.67;22.83;;;;;;;7.19;87.20;100263.91;5015120;28;20034;-68
2021/11/01 01:57:06;;;;;;;37.53;24.38;;;;;;;7.19;86.96;100264.75;5013358;28;20033;-68
2021/11/01 01:59:32;;;;;;;41.00;24.60;;;;;;;7.18;86.60;100271.06;5012597;28;20034;-68
2021/11/01 02:01:57;;;;;;;37.28;24.27;;;;;;;7.14;86.95;100260.72;5015492;28;20021;-68
2021/11/01 02:04:26;;;;;;;35.83;23.83;;;;;;;7.16;87.37;100272.97;5016547;28;20045;-68
2021/11/01 02:07:12;;;;;;;40.40;23.23;;;;;;;7.12;87.26;100270.69;5015134;28;20505;-68
2021/11/01 02:09:45;;;;;;;35.65;23.25;;;;;;;7.13;86.70;100275.91;5016417;28;20033;-68
2021/11/01 02:12:17;;;;;;;33.38;22.27;;;;;;;7.13;86.82;100269.72;5018692;28;20052;-68
2021/11/01 02:15:24;;;;;;;39.00;22.60;;;;;;;7.02;87.09;100256.34;5014008;28;20033;-68
2021/11/01 02:17:53;;;;;;;38.47;22.40;;;;;;;7.06;87.56;100266.63;5016518;28;20567;-68
2021/11/01 02:21:03;;;;;;;35.53;22.67;;;;;;;7.07;87.06;100277.19;5020943;28;22514;-68
2021/11/01 02:23:51;;;;;;;40.25;23.85;;;;;;;7.03;87.07;100261.53;5016503;28;20078;-68
2021/11/01 02:26:18;;;;;;;37.22;23.27;;;;;;;7.01;87.29;100263.47;5023970;28;20103;-68
2021/11/01 02:28:45;;;;;;;40.13;23.40;;;;;;;6.99;86.91;100273.38;5014580;28;20186;-68
2021/11/01 02:31:16;;;;;;;37.10;23.48;;;;;;;6.91;86.54;100259.78;5015525;28;20022;-68
2021/11/01 02:33:43;;;;;;;35.88;23.50;;;;;;;6.91;86.45;100262.44;5017767;28;20021;-68
2021/11/01 02:36:09;;;;;;;33.70;22.30;;;;;;;6.86;86.82;100260.13;5019576;28;20034;-68
2021/11/01 02:38:34;;;;;;;36.17;23.52;;;;;;;6.79;86.86;100256.22;5013547;28;20041;-69
2021/11/01 02:41:15;;;;;;;38.05;23.05;;;;;;;6.77;87.33;100252.78;5018861;28;20480;-68
2021/11/01 02:43:41;;;;;;;36.53;22.80;;;;;;;6.72;86.78;100254.97;5021658;28;20468;-68
2021/11/01 02:46:07;;;;;;;35.72;22.77;;;;;;;6.64;86.85;100246.66;5017291;28;20049;-68
2021/11/01 02:48:32;;;;;;;35.65;22.73;;;;;;;6.65;87.40;100242.19;5015901;28;20036;-69
2021/11/01 02:50:58;;;;;;;36.33;22.85;;;;;;;6.60;86.62;100244.31;5014025;28;20036;-68
2021/11/01 02:53:23;;;;;;;40.38;24.35;;;;;;;6.59;87.33;100256.81;5016116;28;20471;-68
2021/11/01 02:55:49;;;;;;;38.38;22.83;;;;;;;6.52;86.94;100247.53;5014109;28;20036;-68
2021/11/01 02:58:14;;;;;;;37.58;24.67;;;;;;;6.32;87.48;100218.81;5017122;28;20029;-69
2021/11/01 03:00:40;;;;;;;39.08;23.58;;;;;;;6.46;87.69;100247.16;5021489;28;20036;-68
2021/11/01 03:03:06;;;;;;;37.67;23.88;;;;;;;6.40;87.98;100240.44;5016111;28;20490;-68
2021/11/01 03:05:34;;;;;;;35.47;22.55;;;;;;;6.33;87.86;100233.88;5020153;28;20061;-69
2021/11/01 03:08:01;;;;;;;37.65;22.45;;;;;;;6.27;88.60;100230.78;5019091;28;20040;-68
2021/11/01 03:10:28;;;;;;;37.13;23.10;;;;;;;6.31;88.22;100234.91;5019196;28;20368;-68
2021/11/01 03:12:55;;;;;;;34.35;22.30;;;;;;;6.21;88.55;100215.25;5024686;28;20048;-68
2021/11/01 03:15:23;;;;;;;32.20;21.45;;;;;;;6.28;88.86;100237.78;5024755;28;20061;-68
2021/11/01 03:17:53;;;;;;;37.92;22.58;;;;;;;6.27;89.14;100236.09;5021045;28;20052;-68
2021/11/01 03:20:24;;;;;;;36.65;23.60;;;;;;;6.24;89.56;100229.19;5023524;28;20054;-68
2021/11/01 03:22:55;;;;;;;34.88;21.75;;;;;;;6.23;89.85;100229.31;5025028;28;20095;-68
2021/11/01 03:25:26;;;;;;;35.50;22.17;;;;;;;6.21;90.46;100234.75;5023904;28;20065;-68
2021/11/01 03:27:53;;;;;;;37.08;23.20;;;;;;;6.22;90.44;100228.44;5022882;28;20037;-68
2021/11/01 03:30:20;;;;;;;35.03;21.63;;;;;;;6.23;91.12;100231.97;5023466;28;20143;-68
2021/11/01 03:32:48;;;;;;;35.30;22.70;;;;;;;6.25;90.83;100224.69;5023135;28;20468;-68
2021/11/01 03:35:15;;;;;;;36.55;23.63;;;;;;;6.26;91.03;100226.44;5024707;28;20044;-68
2021/11/01 03:37:42;;;;;;;32.53;22.98;;;;;;;6.26;91.37;100224.59;5020256;28;20520;-68
2021/11/01 03:40:09;;;;;;;34.83;21.75;;;;;;;6.07;91.22;100188.75;5022971;28;20021;-68
2021/11/01 03:42:35;;;;;;;36.30;21.83;;;;;;;6.30;91.44;100225.25;5025017;28;20025;-68
2021/11/01 03:45:07;;;;;;;34.22;22.60;;;;;;;6.29;91.62;100221.72;5025182;28;20495;-68
2021/11/01 03:47:38;;;;;;;34.80;21.30;;;;;;;6.35;91.28;100215.09;5020240;28;20040;-69
2021/11/01 03:50:14;;;;;;;35.13;21.65;;;;;;;6.36;91.20;100209.66;5023817;28;20040;-68
2021/11/01 03:52:42;;;;;;;38.28;22.67;;;;;;;6.27;91.51;100202.34;5020585;28;20039;-69
2021/11/01 03:55:08;;;;;;;34.92;22.10;;;;;;;6.35;91.14;100207.97;5016670;28;20037;-68
2021/11/01 03:57:34;;;;;;;34.78;22.30;;;;;;;6.36;90.96;100208.81;5020790;28;20032;-68
2021/11/01 04:00:00;;;;;;;36.72;21.63;;;;;;;6.36;91.43;100201.66;5021286;28;20026;-68
2021/11/01 04:02:26;;;;;;;34.38;21.27;;;;;;;6.39;91.11;100203.28;5019491;28;20066;-68
2021/11/01 04:04:53;;;;;;;33.35;21.02;;;;;;;6.40;91.40;100205.81;5024231;28;20034;-69
2021/11/01 04:07:20;;;;;;;33.42;21.05;;;;;;;6.46;91.47;100205.38;5021802;28;20045;-69
2021/11/01 04:09:46;;;;;;;35.20;22.15;;;;;;;6.42;91.04;100189.75;5024760;28;20059;-68
2021/11/01 04:12:12;;;;;;;30.17;19.67;;;;;;;6.45;91.33;100192.19;5023197;28;20040;-69
2021/11/01 04:14:43;;;;;;;34.13;21.10;;;;;;;6.45;91.32;100189.50;5024082;28;20033;-68
2021/11/01 04:17:20;;;;;;;32.80;20.58;;;;;;;6.44;90.91;100182.47;5023123;28;20406;-69
2021/11/01 04:19:55;;;;;;;28.38;19.70;;;;;;;6.46;90.36;100176.09;5023105;28;20042;-69
2021/11/01 04:22:21;;;;;;;34.55;21.45;;;;;;;6.47;89.78;100180.44;5023938;28;20040;-69
2021/11/01 04:24:47;;;;;;;31.67;19.92;;;;;;;6.48;89.90;100176.81;5020917;28;20510;-69
2021/11/01 04:27:12;;;;;;;34.83;21.40;;;;;;;6.46;90.25;100173.41;5020445;28;20045;-68
2021/11/01 04:29:39;;;;;;;31.65;20.25;;;;;;;6.46;90.09;100167.22;5021524;28;20057;-69
2021/11/01 04:32:17;;;;;;;34.63;21.80;;;;;;;6.45;89.65;100169.03;5021978;28;20041;-69
2021/11/01 04:34:48;;;;;;;31.33;21.00;;;;;;;6.44;89.59;100167.34;5019467;28;20369;-69
2021/11/01 04:37:14;;;;;;;32.30;20.63;;;;;;;6.27;89.42;100138.44;5019342;28;20041;-70
2021/11/01 04:55:19;;;;;;;31.80;20.42;;;;;;;6.31;88.98;100161.22;5019303;28;20572;-68
2021/11/01 04:57:44;;;;;;;32.58;20.42;;;;;;;6.22;89.21;100145.03;5020879;28;20041;-68
2021/11/01 05:00:11;;;;;;;37.22;21.88;;;;;;;6.27;89.12;100154.41;5015351;28;20029;-68
2021/11/01 05:02:39;;;;;;;33.72;21.10;;;;;;;6.24;88.87;100159.97;5018177;28;20025;-68
2021/11/01 05:05:05;;;;;;;34.90;21.90;;;;;;;6.23;88.92;100160.91;5018386;28;20048;-69
2021/11/01 05:07:31;;;;;;;35.38;21.23;;;;;;;6.11;88.48;100135.19;5013557;28;20053;-69
2021/11/01 05:17:48;;;;;;;35.15;20.15;;;;;;;6.16;88.12;100161.47;5014720;28;20326;-70
2021/11/01 05:28:01;;;;;;;32.20;20.85;;;;;;;6.07;88.81;100143.50;5013497;28;20026;-69
2021/11/01 05:33:12;;;;;;;35.40;21.95;;;;;;;6.03;88.49;100147.34;5014366;28;21978;-69
2021/11/01 05:35:39;;;;;;;32.55;21.55;;;;;;;6.01;88.11;100142.13;5018166;28;20053;-69
2021/11/01 05:38:06;;;;;;;37.42;22.17;;;;;;;6.02;88.06;100148.28;5017903;28;20076;-69
2021/11/01 05:40:32;;;;;;;32.40;21.63;;;;;;;6.02;87.94;100140.31;5017453;28;20030;-69
2021/11/01 05:42:58;;;;;;;32.08;22.00;;;;;;;6.03;87.96;100152.69;5016226;28;20026;-69
2021/11/01 05:45:24;;;;;;;35.65;22.40;;;;;;;5.90;87.87;100125.25;5015292;28;20404;-69
2021/11/01 05:47:57;;;;;;;31.65;21.05;;;;;;;5.88;87.99;100120.03;5019870;28;20026;-69
2021/11/01 05:50:24;;;;;;;35.65;22.30;;;;;;;5.99;87.64;100140.53;5015950;28;20063;-69
2021/11/01 05:52:50;;;;;;;28.55;19.40;;;;;;;5.99;87.82;100141.38;5022774;28;20029;-68
2021/11/01 05:58:04;;;;;;;35.85;24.00;;;;;;;6.03;87.62;100147.34;5017554;28;20630;-69
2021/11/01 06:03:21;;;;;;;34.88;22.77;;;;;;;6.02;87.40;100150.97;5017444;28;20048;-70
2021/11/01 06:13:32;;;;;;;38.03;23.15;;;;;;;6.05;86.74;100156.06;5016124;28;20108;-69
2021/11/01 06:16:00;;;;;;;34.85;23.13;;;;;;;6.06;86.38;100153.28;5009779;28;20144;-69
2021/11/01 06:18:35;;;;;;;33.85;21.75;;;;;;;6.10;86.21;100152.09;5014801;28;20045;-70
2021/11/01 06:21:05;;;;;;;33.30;21.58;;;;;;;6.02;86.20;100130.53;5009182;28;20484;-69
2021/11/01 06:23:33;;;;;;;31.52;21.65;;;;;;;6.12;85.83;100146.66;5014151;28;20056;-70
2021/11/01 06:25:59;;;;;;;33.25;22.38;;;;;;;6.14;85.73;100140.28;5012625;28;20022;-70
2021/11/01 06:28:25;;;;;;;33.08;21.98;;;;;;;6.16;85.93;100143.69;5012605;28;20025;-69
2021/11/01 06:30:53;;;;;;;35.92;22.23;;;;;;;6.19;86.26;100143.44;5016746;28;20040;-69
2021/11/01 07:19:05;;;;;;;33.00;22.45;;;;;;;7.03;82.38;100144.19;5014702;28;20117;-70
2021/11/01 08:21:43;;;;;;;28.60;19.85;;;;;;;8.88;82.22;100113.13;5014837;28;20510;-69
2021/11/01 08:40:45;;;;;;;32.85;21.10;;;;;;;9.51;81.68;100104.94;5015114;28;20118;-70
2021/11/01 08:45:50;;;;;;;;;;;;;;;9.66;81.17;100090.22;5009269;28;20668;-70
2021/11/01 09:26:37;;;;;;;27.13;19.08;;;;;;;11.22;76.82;100037.31;5027449;28;20032;-69
2021/11/01 09:37:25;;;;;;;24.98;17.67;;;;;;;11.87;73.41;100029.19;5018942;28;20131;-70
2021/11/01 09:42:44;;;;;;;24.63;17.77;;;;;;;12.38;70.78;100017.81;5015316;28;20056;-69
2021/11/01 09:45:09;;;;;;;28.13;19.27;;;;;;;12.66;68.05;100012.19;5019616;28;20037;-70
2021/11/01 09:47:37;;;;;;;25.48;18.00;;;;;;;12.94;67.51;100008.38;5010523;28;20041;-69
2021/11/01 09:50:04;;;;;;;24.88;18.13;;;;;;;13.18;66.05;100019.34;5010617;28;20361;-69
2021/11/01 09:52:30;;;;;;;25.15;18.83;;;;;;;13.31;64.65;99992.81;5015134;28;20037;-69
2021/11/01 09:54:58;;;;;;;25.08;18.88;;;;;;;13.45;64.41;100002.97;5016952;28;20032;-69
2021/11/01 09:57:35;;;;;;;25.48;19.25;;;;;;;13.42;64.39;99989.84;5018342;28;20039;-69
2021/11/01 10:00:01;;;;;;;25.60;18.13;;;;;;;13.50;64.14;100003.34;5005877;28;20442;-69
2021/11/01 10:02:26;;;;;;;24.70;19.50;;;;;;;13.46;63.77;99990.38;5011937;28;20030;-69
2021/11/01 10:04:53;;;;;;;25.73;18.08;;;;;;;13.46;63.69;99993.06;5020124;28;20036;-70
2021/11/01 10:07:32;;;;;;;25.33;18.27;;;;;;;13.39;64.43;99976.69;5016705;28;20022;-70
2021/11/01 10:10:11;;;;;;;25.75;18.10;;;;;;;13.44;64.41;99985.13;5020570;28;20033;-69
2021/11/01 10:12:39;;;;;;;24.75;17.15;;;;;;;13.47;64.35;99978.56;5023098;28;20052;-69
2021/11/01 10:18:02;;;;;;;23.05;17.17;;;;;;;13.50;64.34;99987.19;5020812;28;20088;-69
2021/11/01 10:20:30;;;;;;;22.60;16.52;;;;;;;13.54;63.53;99966.13;5016595;28;20488;-69
2021/11/01 10:22:56;;;;;;;25.08;16.67;;;;;;;13.58;63.82;99967.53;5027001;28;20434;-69
2021/11/01 10:25:23;;;;;;;24.95;17.77;;;;;;;13.59;63.46;99963.81;5014019;28;20029;-69
2021/11/01 10:28:08;;;;;;;25.60;17.60;;;;;;;13.63;64.03;99965.19;5024298;28;20068;-70
2021/11/01 10:30:35;;;;;;;25.77;18.75;;;;;;;13.66;63.88;99970.25;5026054;28;20088;-69
2021/11/01 10:33:05;;;;;;;28.67;17.90;;;;;;;13.73;63.32;99958.66;5031007;28;20029;-69
2021/11/01 10:35:43;;;;;;;24.52;16.95;;;;;;;13.73;63.52;99947.00;5026302;28;20480;-69
2021/11/01 10:38:29;;;;;;;21.60;17.02;;;;;;;13.76;63.38;99944.00;5023512;28;20036;-69
2021/11/01 11:14:26;;;;;;;24.35;16.50;;;;;;;14.10;61.84;99881.88;5030006;28;20004;-70
2021/11/01 11:41:07;;;;;;;22.48;16.15;;;;;;;14.32;61.26;99874.00;5027100;28;20182;-68
2021/11/01 11:49:03;;;;;;;23.63;16.95;;;;;;;14.41;60.27;99861.34;5028075;28;20126;-69
2021/11/01 11:51:29;;;;;;;23.35;17.17;;;;;;;14.46;60.11;99857.13;5023126;28;20033;-69
2021/11/01 11:53:57;;;;;;;25.42;16.55;;;;;;;14.46;60.02;99850.88;5021789;28;20021;-69
2021/11/01 11:56:32;;;;;;;25.65;17.25;;;;;;;14.50;60.30;99850.38;5027253;28;20525;-69
2021/11/01 11:59:07;;;;;;;23.58;16.45;;;;;;;14.53;60.47;99852.72;5027142;28;20076;-68
2021/11/01 12:01:51;;;;;;;22.33;16.67;;;;;;;14.55;59.81;99842.63;5024933;28;20026;-68
2021/11/01 12:04:21;;;;;;;;;;;;;;;14.60;60.06;99842.06;5015207;28;20534;-69
2021/11/01 12:06:57;;;;;;;24.73;17.02;;;;;;;14.65;60.22;99834.31;5025918;28;20272;-68
2021/11/01 12:09:30;;;;;;;22.08;16.58;;;;;;;14.68;60.43;99833.97;5019609;28;20053;-68
2021/11/01 12:17:19;;;;;;;22.65;16.30;;;;;;;14.76;59.29;99815.91;5017697;28;20042;-69
2021/11/01 12:19:45;;;;;;;23.55;16.50;;;;;;;14.74;59.46;99806.28;5021964;28;20068;-68
2021/11/01 12:22:21;;;;;;;20.90;15.93;;;;;;;14.77;59.34;99817.56;5029164;28;20030;-69
2021/11/01 12:24:50;;;;;;;21.70;16.05;;;;;;;14.75;58.96;99802.56;5026389;28;20075;-68
2021/11/01 12:27:17;;;;;;;20.25;15.13;;;;;;;14.82;58.87;99790.91;5028126;28;20357;-68
2021/11/01 12:29:42;;;;;;;22.08;15.38;;;;;;;14.84;58.60;99794.28;5017865;28;20028;-68
2021/11/01 12:32:12;;;;;;;21.08;15.85;;;;;;;14.88;59.09;99794.75;5028923;28;20029;-68
2021/11/01 12:35:01;;;;;;;25.08;16.55;;;;;;;14.88;58.68;99783.97;5014027;28;20475;-69
2021/11/01 12:37:49;;;;;;;23.23;15.63;;;;;;;14.88;58.74;99774.03;5024902;28;20033;-68
2021/11/01 12:58:59;;;;;;;21.40;15.40;;;;;;;14.98;57.91;99734.13;5020707;28;20274;-68
2021/11/01 13:01:30;;;;;;;20.70;15.90;;;;;;;15.06;58.21;99747.59;5027985;28;20025;-69
2021/11/01 13:09:31;;;;;;;21.92;16.08;;;;;;;15.06;57.93;99755.69;5066805;28;20096;-68
2021/11/01 13:15:11;;;;;;;;;;;;;;;15.10;57.88;99737.28;5085424;28;20055;-68
2021/11/01 13:20:19;;;;;;;23.17;15.43;;;;;;;15.12;57.45;99725.28;5062434;28;20033;-68
2021/11/01 13:22:47;;;;;;;21.75;15.40;;;;;;;15.15;57.54;99727.63;5063997;28;21184;-68
2021/11/01 13:25:34;;;;;;;23.38;16.00;;;;;;;15.15;57.58;99730.31;5073876;28;20474;-68
2021/11/01 13:36:48;;;;;;;24.98;15.85;;;;;;;15.19;56.57;99709.19;5064323;28;20100;-68
2021/11/01 13:39:26;;;;;;;19.70;14.90;;;;;;;15.21;56.33;99712.56;5061675;28;20063;-68
2021/11/01 13:41:52;;;;;;;20.52;15.43;;;;;;;15.20;56.47;99706.31;5058275;28;20027;-69
2021/11/01 13:44:24;;;;;;;21.90;15.77;;;;;;;15.19;56.71;99710.03;5078062;28;20394;-69
2021/11/01 13:46:58;;;;;;;23.92;14.80;;;;;;;15.19;56.87;99710.03;5060506;28;20107;-69
2021/11/01 13:49:29;;;;;;;23.83;15.90;;;;;;;15.19;56.88;99714.59;5063658;28;20120;-69
2021/11/01 13:51:54;;;;;;;21.75;14.48;;;;;;;15.17;56.77;99706.69;5060351;28;20119;-69
2021/11/01 13:54:49;;;;;;;19.27;14.65;;;;;;;15.20;57.11;99716.28;5063413;28;20108;-69
2021/11/01 13:57:16;;;;;;;21.40;14.85;;;;;;;15.22;57.08;99720.47;5059842;28;20051;-69
2021/11/01 14:00:07;;;;;;;20.88;15.57;;;;;;;15.21;56.65;99705.28;5066275;28;20047;-69
2021/11/01 14:16:39;;;;;;;23.48;15.07;;;;;;;15.13;57.42;99691.00;5050331;28;20024;-69
2021/11/01 14:27:25;;;;;;;49.72;31.17;;;;;;;15.11;57.64;99691.19;5058061;28;20056;-69
2021/11/01 14:33:00;;;;;;;25.80;18.27;;;;;;;15.11;58.20;99693.88;5036786;28;20454;-69
2021/11/01 15:23:03;;;;;;;29.17;19.77;;;;;;;14.51;61.32;99622.69;5047070;28;20029;-68
2021/11/01 16:19:40;;;;;;;28.40;19.20;;;;;;;13.99;63.20;99620.69;5047301;28;20021;-69
2021/11/01 16:22:07;;;;;;;24.27;18.27;;;;;;;13.94;62.86;99621.22;5046779;28;20021;-69
2021/11/01 16:24:35;;;;;;;26.80;19.10;;;;;;;14.01;62.97;99624.03;5038093;28;20033;-69
2021/11/01 16:27:01;;;;;;;26.73;18.80;;;;;;;13.97;62.69;99622.72;5042117;28;20037;-69
2021/11/01 16:29:39;;;;;;;25.85;17.88;;;;;;;13.95;62.81;99620.19;5047758;28;20080;-69
2021/11/01 16:32:09;;;;;;;23.52;17.65;;;;;;;13.97;63.40;99631.66;5039881;28;20120;-69
2021/11/01 16:34:37;;;;;;;28.52;18.02;;;;;;;13.93;62.90;99629.47;5041668;28;20036;-69
2021/11/01 16:39:49;;;;;;;26.35;18.90;;;;;;;13.86;62.84;99615.81;5042254;28;20037;-69
2021/11/01 16:42:17;;;;;;;26.58;18.73;;;;;;;13.90;62.35;99622.59;5039128;28;20025;-69
2021/11/01 16:44:44;;;;;;;27.30;18.83;;;;;;;13.87;62.95;99617.53;5037847;28;20100;-69
2021/11/01 16:47:10;;;;;;;29.58;19.13;;;;;;;13.91;63.01;99620.69;5050248;28;20102;-69
2021/11/01 16:49:36;;;;;;;30.17;19.23;;;;;;;13.81;63.03;99603.88;5045095;28;20029;-68
2021/11/01 16:52:08;;;;;;;27.95;19.77;;;;;;;13.86;62.73;99607.75;5037052;28;20021;-69
2021/11/01 16:54:36;;;;;;;29.90;20.00;;;;;;;13.86;63.18;99615.81;5032991;28;20119;-69
2021/11/01 16:57:16;;;;;;;27.13;19.15;;;;;;;13.81;63.01;99604.75;5032462;28;20044;-69
2021/11/01 17:04:53;;;;;;;30.77;20.70;;;;;;;13.79;62.80;99604.06;5041086;28;20376;-69
2021/11/01 17:07:40;;;;;;;30.73;20.48;;;;;;;13.76;62.95;99601.72;5046182;28;20025;-69
2021/11/01 17:34:41;;;;;;;31.63;22.88;;;;;;;13.68;62.83;99590.97;5052366;28;20426;-69
2021/11/01 18:50:54;;;;;;;33.53;24.17;;;;;;;13.22;63.88;99519.00;5044933;28;20047;-69
2021/11/01 18:53:29;;;;;;;34.85;23.73;;;;;;;13.23;63.70;99518.78;5041816;28;20103;-69
2021/11/01 18:55:55;;;;;;;32.90;22.65;;;;;;;13.16;63.93;99507.03;5045354;28;20104;-68
2021/11/01 18:58:31;;;;;;;32.38;22.65;;;;;;;13.23;64.47;99524.19;5048452;28;20057;-69
2021/11/01 19:00:59;;;;;;;33.97;23.15;;;;;;;13.24;64.14;99525.03;5039070;28;20036;-69
2021/11/01 19:03:26;;;;;;;34.78;22.08;;;;;;;13.20;64.12;99515.63;5046293;28;20028;-69
2021/11/01 19:14:42;;;;;;;28.67;20.23;;;;;;;13.19;64.27;99508.56;5035330;28;20059;-63
2021/11/01 20:04:09;;;;;;;39.70;27.08;;;;;;;12.96;65.10;99492.22;5031953;28;20048;-63
2021/11/01 20:09:54;;;;;;;32.92;23.95;;;;;;;12.93;65.58;99479.13;5035135;28;20052;-63
2021/11/01 20:12:23;;;;;;;35.42;23.05;;;;;;;12.91;65.58;99475.78;5037579;28;20063;-63
2021/11/01 21:26:58;;;;;;;31.80;22.20;;;;;;;12.51;66.11;99442.66;5047081;28;20035;-68
2021/11/01 21:29:25;;;;;;;32.28;22.38;;;;;;;12.51;65.65;99454.25;5048241;28;20041;-68
2021/11/01 21:31:51;;;;;;;33.13;23.25;;;;;;;12.48;66.01;99438.44;5047227;28;20054;-67
2021/11/01 21:34:26;;;;;;;33.42;22.05;;;;;;;12.47;66.02;99442.16;5041440;28;20033;-68
2021/11/01 21:36:53;;;;;;;38.15;23.77;;;;;;;12.46;66.04;99447.69;5052839;28;20020;-67
2021/11/01 21:39:18;;;;;;;31.58;22.75;;;;;;;12.49;65.40;99441.97;5048123;28;20444;-67
2021/11/01 21:41:44;;;;;;;32.42;22.77;;;;;;;12.43;65.60;99438.13;5048448;28;20044;-67
2021/11/01 21:44:09;;;;;;;35.20;23.50;;;;;;;12.39;65.62;99425.19;5042059;28;20033;-67
2021/11/01 21:46:35;;;;;;;34.20;22.55;;;;;;;12.44;65.51;99441.63;5048729;28;20037;-68
2021/11/01 21:49:00;;;;;;;35.10;22.80;;;;;;;12.40;65.40;99427.69;5045757;28;20116;-67
2021/11/01 21:51:28;;;;;;;32.58;22.33;;;;;;;12.36;66.28;99423.66;5065477;28;20086;-67
2021/11/01 21:54:10;;;;;;;30.38;21.23;;;;;;;12.36;65.53;99422.81;5043315;28;20037;-63
2021/11/01 21:56:36;;;;;;;32.83;22.95;;;;;;;12.32;65.42;99416.91;5045224;28;20033;-63
2021/11/01 22:10:35;;;;;;;30.10;21.35;;;;;;;12.28;66.01;99418.28;5043014;28;20132;-63
2021/11/01 22:21:09;;;;;;;32.47;22.10;;;;;;;12.23;66.09;99407.19;5047059;28;20063;-63
2021/11/01 22:26:27;;;;;;;30.63;20.95;;;;;;;12.19;66.28;99391.56;5046196;28;20056;-67
2021/11/01 22:39:35;;;;;;;30.42;20.67;;;;;;;12.09;66.31;99370.22;5043619;28;20044;-67
2021/11/01 22:44:49;;;;;;;28.10;20.52;;;;;;;12.12;66.32;99366.38;5043790;28;20048;-67
2021/11/01 22:57:58;;;;;;;31.08;20.58;;;;;;;12.06;66.90;99361.66;5052332;28;20097;-67
2021/11/01 23:00:38;;;;;;;29.45;20.30;;;;;;;12.02;66.21;99339.66;5046785;28;20032;-67
2021/11/01 23:03:09;;;;;;;29.83;19.08;;;;;;;12.02;66.45;99346.88;5043162;28;20368;-67
2021/11/01 23:06:00;;;;;;;29.30;20.02;;;;;;;12.03;67.05;99335.94;5046486;28;20079;-67
2021/11/01 23:33:03;;;;;;;31.50;20.35;;;;;;;11.78;66.58;99296.66;5045856;28;20040;-62
2021/11/01 23:35:29;;;;;;;33.75;21.15;;;;;;;11.85;66.37;99300.34;5043008;28;20033;-62
2021/11/01 23:37:54;;;;;;;31.60;21.73;;;;;;;11.82;65.96;99291.78;5040893;28;20025;-63
2021/11/01 23:40:20;;;;;;;35.70;21.75;;;;;;;11.81;66.15;99284.72;5042453;28;20059;-63
2021/11/01 23:42:45;;;;;;;30.33;20.92;;;;;;;11.78;66.02;99282.38;5044322;28;20083;-63
2021/11/01 23:45:11;;;;;;;38.55;21.58;;;;;;;11.77;66.79;99283.38;5041961;28;20029;-63
2021/11/01 23:47:36;;;;;;;34.38;21.08;;;;;;;11.75;66.71;99285.38;5051931;28;20067;-62
2021/11/01 23:50:03;;;;;;;32.13;21.13;;;;;;;11.71;66.37;99274.16;5036981;28;20034;-63
2021/11/01 23:52:37;;;;;;;29.73;20.67;;;;;;;11.71;66.32;99276.00;5045504;28;20043;-63
2021/11/01 23:55:03;;;;;;;33.47;20.92;;;;;;;11.64;66.07;99259.69;5043906;28;20067;-62
2021/11/01 23:57:29;;;;;;;34.35;21.85;;;;;;;11.68;66.04;99265.59;5047005;28;20121;-62
2021/11/01 23:59:54;;;;;;;29.48;20.92;;;;;;;11.66;65.86;99262.22;5049079;28;20060;-63
